sensor_id;sensor_type;location;lat;lon;timestamp;temperature;humidity
3069;DHT22;1545;51.728;8.796;2024-02-26T00:00:15;4.00;96.60
3069;DHT22;1545;51.728;8.796;2024-02-26T00:02:41;4.00;96.50
3069;DHT22;1545;51.728;8.796;2024-02-26T00:05:07;3.90;96.50
3069;DHT22;1545;51.728;8.796;2024-02-26T00:07:34;3.90;96.60
3069;DHT22;1545;51.728;8.796;2024-02-26T00:09:59;3.90;96.70
3069;DHT22;1545;51.728;8.796;2024-02-26T00:12:25;3.80;96.80
3069;DHT22;1545;51.728;8.796;2024-02-26T00:14:50;3.70;96.90
3069;DHT22;1545;51.728;8.796;2024-02-26T00:17:16;3.60;97.10
3069;DHT22;1545;51.728;8.796;2024-02-26T00:19:41;3.40;97.30
3069;DHT22;1545;51.728;8.796;2024-02-26T00:22:07;3.30;98.10
3069;DHT22;1545;51.728;8.796;2024-02-26T00:24:32;3.30;98.60
3069;DHT22;1545;51.728;8.796;2024-02-26T00:26:59;3.30;98.80
3069;DHT22;1545;51.728;8.796;2024-02-26T00:29:24;3.40;98.80
3069;DHT22;1545;51.728;8.796;2024-02-26T00:31:51;3.40;98.80
3069;DHT22;1545;51.728;8.796;2024-02-26T00:34:16;3.40;98.80
3069;DHT22;1545;51.728;8.796;2024-02-26T00:36:42;3.40;98.70
3069;DHT22;1545;51.728;8.796;2024-02-26T00:39:07;3.30;98.50
3069;DHT22;1545;51.728;8.796;2024-02-26T00:41:33;3.30;98.70
3069;DHT22;1545;51.728;8.796;2024-02-26T00:43:58;3.30;98.60
3069;DHT22;1545;51.728;8.796;2024-02-26T00:46:24;3.30;98.60
3069;DHT22;1545;51.728;8.796;2024-02-26T00:48:50;3.30;98.70
3069;DHT22;1545;51.728;8.796;2024-02-26T00:51:15;3.30;98.80
3069;DHT22;1545;51.728;8.796;2024-02-26T00:53:41;3.30;98.80
3069;DHT22;1545;51.728;8.796;2024-02-26T00:56:06;3.30;98.80
3069;DHT22;1545;51.728;8.796;2024-02-26T00:58:32;3.20;98.80
3069;DHT22;1545;51.728;8.796;2024-02-26T01:00:57;3.20;98.80
3069;DHT22;1545;51.728;8.796;2024-02-26T01:03:23;3.10;98.80
3069;DHT22;1545;51.728;8.796;2024-02-26T01:05:48;3.10;98.80
3069;DHT22;1545;51.728;8.796;2024-02-26T01:08:14;3.10;98.80
3069;DHT22;1545;51.728;8.796;2024-02-26T01:10:39;3.10;98.80
3069;DHT22;1545;51.728;8.796;2024-02-26T01:13:05;3.30;98.80
3069;DHT22;1545;51.728;8.796;2024-02-26T01:15:30;3.50;98.80
3069;DHT22;1545;51.728;8.796;2024-02-26T01:17:56;3.70;98.30
3069;DHT22;1545;51.728;8.796;2024-02-26T01:20:21;3.90;97.80
3069;DHT22;1545;51.728;8.796;2024-02-26T01:22:47;4.00;97.10
3069;DHT22;1545;51.728;8.796;2024-02-26T01:25:13;4.20;96.10
3069;DHT22;1545;51.728;8.796;2024-02-26T01:27:39;4.30;95.50
3069;DHT22;1545;51.728;8.796;2024-02-26T01:30:06;4.60;94.60
3069;DHT22;1545;51.728;8.796;2024-02-26T01:32:32;4.80;93.80
3069;DHT22;1545;51.728;8.796;2024-02-26T01:34:58;5.00;93.00
3069;DHT22;1545;51.728;8.796;2024-02-26T01:37:23;5.20;92.20
3069;DHT22;1545;51.728;8.796;2024-02-26T01:39:49;5.30;91.50
3069;DHT22;1545;51.728;8.796;2024-02-26T01:42:14;5.40;91.40
3069;DHT22;1545;51.728;8.796;2024-02-26T01:44:40;5.50;90.90
3069;DHT22;1545;51.728;8.796;2024-02-26T01:47:07;5.60;90.50
3069;DHT22;1545;51.728;8.796;2024-02-26T01:49:35;5.70;89.60
3069;DHT22;1545;51.728;8.796;2024-02-26T01:52:02;5.80;89.50
3069;DHT22;1545;51.728;8.796;2024-02-26T01:54:30;5.80;89.30
3069;DHT22;1545;51.728;8.796;2024-02-26T01:56:56;5.90;89.30
3069;DHT22;1545;51.728;8.796;2024-02-26T01:59:22;5.90;89.20
3069;DHT22;1545;51.728;8.796;2024-02-26T02:01:52;5.90;89.00
3069;DHT22;1545;51.728;8.796;2024-02-26T02:04:19;5.90;88.90
3069;DHT22;1545;51.728;8.796;2024-02-26T02:06:45;5.90;88.80
3069;DHT22;1545;51.728;8.796;2024-02-26T02:09:11;6.00;88.50
3069;DHT22;1545;51.728;8.796;2024-02-26T02:11:37;6.00;88.20
3069;DHT22;1545;51.728;8.796;2024-02-26T02:14:03;6.00;88.10
3069;DHT22;1545;51.728;8.796;2024-02-26T02:16:29;6.10;88.20
3069;DHT22;1545;51.728;8.796;2024-02-26T02:18:54;6.00;88.00
3069;DHT22;1545;51.728;8.796;2024-02-26T02:21:19;6.10;87.50
3069;DHT22;1545;51.728;8.796;2024-02-26T02:23:45;6.20;87.30
3069;DHT22;1545;51.728;8.796;2024-02-26T02:26:13;6.20;87.20
3069;DHT22;1545;51.728;8.796;2024-02-26T02:28:39;6.20;86.80
3069;DHT22;1545;51.728;8.796;2024-02-26T02:31:05;6.10;87.20
3069;DHT22;1545;51.728;8.796;2024-02-26T02:33:31;6.10;87.10
3069;DHT22;1545;51.728;8.796;2024-02-26T02:36:00;6.20;86.70
3069;DHT22;1545;51.728;8.796;2024-02-26T02:38:25;6.20;86.90
3069;DHT22;1545;51.728;8.796;2024-02-26T02:40:52;6.20;87.10
3069;DHT22;1545;51.728;8.796;2024-02-26T02:43:17;6.10;87.00
3069;DHT22;1545;51.728;8.796;2024-02-26T02:45:43;6.10;87.40
3069;DHT22;1545;51.728;8.796;2024-02-26T02:48:09;6.10;87.30
3069;DHT22;1545;51.728;8.796;2024-02-26T02:50:35;6.10;87.40
3069;DHT22;1545;51.728;8.796;2024-02-26T02:53:01;6.10;87.70
3069;DHT22;1545;51.728;8.796;2024-02-26T02:55:27;6.00;87.70
3069;DHT22;1545;51.728;8.796;2024-02-26T02:57:53;6.10;87.30
3069;DHT22;1545;51.728;8.796;2024-02-26T03:00:18;6.10;87.40
3069;DHT22;1545;51.728;8.796;2024-02-26T03:02:44;6.10;87.40
3069;DHT22;1545;51.728;8.796;2024-02-26T03:05:10;6.10;87.20
3069;DHT22;1545;51.728;8.796;2024-02-26T03:07:36;6.10;87.50
3069;DHT22;1545;51.728;8.796;2024-02-26T03:10:01;6.10;87.50
3069;DHT22;1545;51.728;8.796;2024-02-26T03:12:27;6.10;87.60
3069;DHT22;1545;51.728;8.796;2024-02-26T03:14:53;6.10;87.40
3069;DHT22;1545;51.728;8.796;2024-02-26T03:17:20;6.10;87.60
3069;DHT22;1545;51.728;8.796;2024-02-26T03:19:46;6.10;87.60
3069;DHT22;1545;51.728;8.796;2024-02-26T03:22:12;6.10;87.40
3069;DHT22;1545;51.728;8.796;2024-02-26T03:24:38;6.10;87.50
3069;DHT22;1545;51.728;8.796;2024-02-26T03:27:03;6.10;87.60
3069;DHT22;1545;51.728;8.796;2024-02-26T03:29:37;6.10;87.70
3069;DHT22;1545;51.728;8.796;2024-02-26T03:32:03;6.10;87.60
3069;DHT22;1545;51.728;8.796;2024-02-26T03:34:28;6.10;87.70
3069;DHT22;1545;51.728;8.796;2024-02-26T03:36:55;6.10;87.60
3069;DHT22;1545;51.728;8.796;2024-02-26T03:39:21;6.10;87.60
3069;DHT22;1545;51.728;8.796;2024-02-26T03:41:48;6.20;86.90
3069;DHT22;1545;51.728;8.796;2024-02-26T03:44:13;6.20;87.30
3069;DHT22;1545;51.728;8.796;2024-02-26T03:46:39;6.20;87.20
3069;DHT22;1545;51.728;8.796;2024-02-26T03:49:04;6.20;87.10
3069;DHT22;1545;51.728;8.796;2024-02-26T03:51:30;6.20;87.30
3069;DHT22;1545;51.728;8.796;2024-02-26T03:53:57;6.30;86.90
3069;DHT22;1545;51.728;8.796;2024-02-26T03:56:23;6.20;86.70
3069;DHT22;1545;51.728;8.796;2024-02-26T03:58:49;6.20;86.80
3069;DHT22;1545;51.728;8.796;2024-02-26T04:01:15;6.30;86.60
3069;DHT22;1545;51.728;8.796;2024-02-26T04:03:41;6.30;86.60
3069;DHT22;1545;51.728;8.796;2024-02-26T04:06:08;6.30;86.80
3069;DHT22;1545;51.728;8.796;2024-02-26T04:08:35;6.30;86.90
3069;DHT22;1545;51.728;8.796;2024-02-26T04:11:00;6.30;87.10
3069;DHT22;1545;51.728;8.796;2024-02-26T04:13:26;6.30;86.30
3069;DHT22;1545;51.728;8.796;2024-02-26T04:15:51;6.40;86.30
3069;DHT22;1545;51.728;8.796;2024-02-26T04:18:17;6.40;85.90
3069;DHT22;1545;51.728;8.796;2024-02-26T04:20:42;6.40;85.90
3069;DHT22;1545;51.728;8.796;2024-02-26T04:23:08;6.50;86.00
3069;DHT22;1545;51.728;8.796;2024-02-26T04:25:33;6.50;85.90
3069;DHT22;1545;51.728;8.796;2024-02-26T04:27:59;6.40;86.20
3069;DHT22;1545;51.728;8.796;2024-02-26T04:30:24;6.40;86.10
3069;DHT22;1545;51.728;8.796;2024-02-26T04:32:50;6.50;86.00
3069;DHT22;1545;51.728;8.796;2024-02-26T04:35:15;6.50;85.80
3069;DHT22;1545;51.728;8.796;2024-02-26T04:37:41;6.50;85.90
3069;DHT22;1545;51.728;8.796;2024-02-26T04:40:06;6.50;85.90
3069;DHT22;1545;51.728;8.796;2024-02-26T04:42:33;6.60;86.00
3069;DHT22;1545;51.728;8.796;2024-02-26T04:44:58;6.60;85.80
3069;DHT22;1545;51.728;8.796;2024-02-26T04:47:24;6.60;86.30
3069;DHT22;1545;51.728;8.796;2024-02-26T04:49:50;6.60;86.50
3069;DHT22;1545;51.728;8.796;2024-02-26T04:52:16;6.50;86.60
3069;DHT22;1545;51.728;8.796;2024-02-26T04:54:41;6.50;86.30
3069;DHT22;1545;51.728;8.796;2024-02-26T04:57:07;6.60;86.30
3069;DHT22;1545;51.728;8.796;2024-02-26T04:59:32;6.60;86.40
3069;DHT22;1545;51.728;8.796;2024-02-26T05:01:58;6.60;86.50
3069;DHT22;1545;51.728;8.796;2024-02-26T05:04:23;6.60;86.20
3069;DHT22;1545;51.728;8.796;2024-02-26T05:06:49;6.60;86.00
3069;DHT22;1545;51.728;8.796;2024-02-26T05:09:14;6.60;86.50
3069;DHT22;1545;51.728;8.796;2024-02-26T05:11:40;6.60;86.50
3069;DHT22;1545;51.728;8.796;2024-02-26T05:14:06;6.60;86.30
3069;DHT22;1545;51.728;8.796;2024-02-26T05:16:31;6.70;86.20
3069;DHT22;1545;51.728;8.796;2024-02-26T05:18:57;6.70;86.20
3069;DHT22;1545;51.728;8.796;2024-02-26T05:21:22;6.70;86.10
3069;DHT22;1545;51.728;8.796;2024-02-26T05:23:48;6.70;86.20
3069;DHT22;1545;51.728;8.796;2024-02-26T05:26:20;6.60;86.30
3069;DHT22;1545;51.728;8.796;2024-02-26T05:28:46;6.70;85.70
3069;DHT22;1545;51.728;8.796;2024-02-26T05:31:13;6.70;85.60
3069;DHT22;1545;51.728;8.796;2024-02-26T05:33:39;6.70;85.70
3069;DHT22;1545;51.728;8.796;2024-02-26T05:36:04;6.60;86.70
3069;DHT22;1545;51.728;8.796;2024-02-26T05:38:30;6.50;87.40
3069;DHT22;1545;51.728;8.796;2024-02-26T05:40:57;6.30;88.20
3069;DHT22;1545;51.728;8.796;2024-02-26T05:43:23;6.20;87.30
3069;DHT22;1545;51.728;8.796;2024-02-26T05:45:49;6.20;87.60
3069;DHT22;1545;51.728;8.796;2024-02-26T05:48:14;6.20;87.40
3069;DHT22;1545;51.728;8.796;2024-02-26T05:50:39;6.20;88.10
3069;DHT22;1545;51.728;8.796;2024-02-26T05:53:05;6.10;87.90
3069;DHT22;1545;51.728;8.796;2024-02-26T05:55:30;6.20;87.30
3069;DHT22;1545;51.728;8.796;2024-02-26T05:57:56;6.10;87.50
3069;DHT22;1545;51.728;8.796;2024-02-26T06:00:21;6.20;87.30
3069;DHT22;1545;51.728;8.796;2024-02-26T06:02:47;6.20;87.30
3069;DHT22;1545;51.728;8.796;2024-02-26T06:05:12;6.20;87.30
3069;DHT22;1545;51.728;8.796;2024-02-26T06:07:38;6.20;87.30
3069;DHT22;1545;51.728;8.796;2024-02-26T06:10:03;6.30;87.50
3069;DHT22;1545;51.728;8.796;2024-02-26T06:12:30;6.30;86.90
3069;DHT22;1545;51.728;8.796;2024-02-26T06:14:56;6.30;86.80
3069;DHT22;1545;51.728;8.796;2024-02-26T06:17:21;6.30;86.50
3069;DHT22;1545;51.728;8.796;2024-02-26T06:19:47;6.30;86.80
3069;DHT22;1545;51.728;8.796;2024-02-26T06:22:12;6.30;86.90
3069;DHT22;1545;51.728;8.796;2024-02-26T06:24:38;6.20;86.90
3069;DHT22;1545;51.728;8.796;2024-02-26T06:27:05;6.20;86.90
3069;DHT22;1545;51.728;8.796;2024-02-26T06:29:30;6.20;87.00
3069;DHT22;1545;51.728;8.796;2024-02-26T06:31:56;6.10;87.20
3069;DHT22;1545;51.728;8.796;2024-02-26T06:34:21;6.10;87.40
3069;DHT22;1545;51.728;8.796;2024-02-26T06:36:47;6.10;87.30
3069;DHT22;1545;51.728;8.796;2024-02-26T06:39:12;6.10;87.60
3069;DHT22;1545;51.728;8.796;2024-02-26T06:41:38;6.00;87.30
3069;DHT22;1545;51.728;8.796;2024-02-26T06:44:04;6.00;87.90
3069;DHT22;1545;51.728;8.796;2024-02-26T06:46:30;5.90;88.10
3069;DHT22;1545;51.728;8.796;2024-02-26T06:48:56;5.90;88.40
3069;DHT22;1545;51.728;8.796;2024-02-26T06:51:22;5.90;88.40
3069;DHT22;1545;51.728;8.796;2024-02-26T06:53:48;5.90;88.50
3069;DHT22;1545;51.728;8.796;2024-02-26T06:56:14;5.90;88.60
3069;DHT22;1545;51.728;8.796;2024-02-26T06:58:39;5.90;88.70
3069;DHT22;1545;51.728;8.796;2024-02-26T07:01:05;5.90;88.90
3069;DHT22;1545;51.728;8.796;2024-02-26T07:03:30;5.90;88.60
3069;DHT22;1545;51.728;8.796;2024-02-26T07:05:56;5.90;88.60
3069;DHT22;1545;51.728;8.796;2024-02-26T07:08:22;5.90;88.40
3069;DHT22;1545;51.728;8.796;2024-02-26T07:10:47;5.90;88.40
3069;DHT22;1545;51.728;8.796;2024-02-26T07:13:13;5.90;88.60
3069;DHT22;1545;51.728;8.796;2024-02-26T07:15:38;5.90;88.40
3069;DHT22;1545;51.728;8.796;2024-02-26T07:18:04;5.90;88.70
3069;DHT22;1545;51.728;8.796;2024-02-26T07:20:30;5.90;88.50
3069;DHT22;1545;51.728;8.796;2024-02-26T07:22:56;5.90;88.60
3069;DHT22;1545;51.728;8.796;2024-02-26T07:25:22;5.90;89.10
3069;DHT22;1545;51.728;8.796;2024-02-26T07:27:48;5.90;88.90
3069;DHT22;1545;51.728;8.796;2024-02-26T07:30:14;6.00;89.00
3069;DHT22;1545;51.728;8.796;2024-02-26T07:32:40;6.00;88.60
3069;DHT22;1545;51.728;8.796;2024-02-26T07:35:05;6.10;88.30
3069;DHT22;1545;51.728;8.796;2024-02-26T07:37:31;6.10;88.00
3069;DHT22;1545;51.728;8.796;2024-02-26T07:39:57;6.10;88.30
3069;DHT22;1545;51.728;8.796;2024-02-26T07:42:22;6.20;88.40
3069;DHT22;1545;51.728;8.796;2024-02-26T07:44:47;6.20;88.40
3069;DHT22;1545;51.728;8.796;2024-02-26T07:47:13;6.30;88.60
3069;DHT22;1545;51.728;8.796;2024-02-26T07:49:40;6.30;88.50
3069;DHT22;1545;51.728;8.796;2024-02-26T07:52:06;6.40;88.60
3069;DHT22;1545;51.728;8.796;2024-02-26T07:54:31;6.40;89.00
3069;DHT22;1545;51.728;8.796;2024-02-26T07:56:57;6.50;88.70
3069;DHT22;1545;51.728;8.796;2024-02-26T07:59:22;6.60;88.00
3069;DHT22;1545;51.728;8.796;2024-02-26T08:01:51;6.60;87.90
3069;DHT22;1545;51.728;8.796;2024-02-26T08:04:17;6.70;87.60
3069;DHT22;1545;51.728;8.796;2024-02-26T08:06:42;6.80;87.50
3069;DHT22;1545;51.728;8.796;2024-02-26T08:09:08;6.90;87.70
3069;DHT22;1545;51.728;8.796;2024-02-26T08:11:34;6.90;87.90
3069;DHT22;1545;51.728;8.796;2024-02-26T08:13:59;7.00;87.80
3069;DHT22;1545;51.728;8.796;2024-02-26T08:16:25;7.00;87.70
3069;DHT22;1545;51.728;8.796;2024-02-26T08:18:50;7.10;87.80
3069;DHT22;1545;51.728;8.796;2024-02-26T08:21:16;7.10;87.70
3069;DHT22;1545;51.728;8.796;2024-02-26T08:23:43;7.00;87.80
3069;DHT22;1545;51.728;8.796;2024-02-26T08:26:09;7.00;88.20
3069;DHT22;1545;51.728;8.796;2024-02-26T08:28:37;7.00;89.30
3069;DHT22;1545;51.728;8.796;2024-02-26T08:31:03;7.10;88.80
3069;DHT22;1545;51.728;8.796;2024-02-26T08:33:28;7.10;87.80
3069;DHT22;1545;51.728;8.796;2024-02-26T08:35:54;7.30;89.20
3069;DHT22;1545;51.728;8.796;2024-02-26T08:38:19;7.30;88.30
3069;DHT22;1545;51.728;8.796;2024-02-26T08:40:45;7.40;87.80
3069;DHT22;1545;51.728;8.796;2024-02-26T08:43:10;7.70;87.40
3069;DHT22;1545;51.728;8.796;2024-02-26T08:45:36;7.60;86.30
3069;DHT22;1545;51.728;8.796;2024-02-26T08:48:02;7.80;86.50
3069;DHT22;1545;51.728;8.796;2024-02-26T08:50:28;7.90;87.00
3069;DHT22;1545;51.728;8.796;2024-02-26T08:52:53;8.10;85.90
3069;DHT22;1545;51.728;8.796;2024-02-26T08:55:19;8.20;85.60
3069;DHT22;1545;51.728;8.796;2024-02-26T08:57:44;8.30;85.70
3069;DHT22;1545;51.728;8.796;2024-02-26T09:00:10;8.50;84.80
3069;DHT22;1545;51.728;8.796;2024-02-26T09:02:36;8.70;84.70
3069;DHT22;1545;51.728;8.796;2024-02-26T09:05:04;8.80;84.70
3069;DHT22;1545;51.728;8.796;2024-02-26T09:07:31;9.00;83.40
3069;DHT22;1545;51.728;8.796;2024-02-26T09:09:56;8.70;83.20
3069;DHT22;1545;51.728;8.796;2024-02-26T09:12:22;8.70;82.20
3069;DHT22;1545;51.728;8.796;2024-02-26T09:14:47;8.90;82.90
3069;DHT22;1545;51.728;8.796;2024-02-26T09:17:13;9.30;82.60
3069;DHT22;1545;51.728;8.796;2024-02-26T09:19:38;9.50;80.80
3069;DHT22;1545;51.728;8.796;2024-02-26T09:22:04;9.80;80.60
3069;DHT22;1545;51.728;8.796;2024-02-26T09:24:29;9.90;80.20
3069;DHT22;1545;51.728;8.796;2024-02-26T09:26:55;9.80;80.10
3069;DHT22;1545;51.728;8.796;2024-02-26T09:29:21;9.50;81.10
3069;DHT22;1545;51.728;8.796;2024-02-26T09:31:46;9.50;81.70
3069;DHT22;1545;51.728;8.796;2024-02-26T09:34:13;9.80;80.50
3069;DHT22;1545;51.728;8.796;2024-02-26T09:36:38;9.70;79.80
3069;DHT22;1545;51.728;8.796;2024-02-26T09:39:04;9.70;80.60
3069;DHT22;1545;51.728;8.796;2024-02-26T09:41:30;9.60;80.60
3069;DHT22;1545;51.728;8.796;2024-02-26T09:43:57;9.60;80.70
3069;DHT22;1545;51.728;8.796;2024-02-26T09:46:26;9.70;80.50
3069;DHT22;1545;51.728;8.796;2024-02-26T09:48:51;10.00;80.20
3069;DHT22;1545;51.728;8.796;2024-02-26T09:51:18;10.20;79.90
3069;DHT22;1545;51.728;8.796;2024-02-26T09:53:44;10.30;80.20
3069;DHT22;1545;51.728;8.796;2024-02-26T09:56:12;9.80;79.30
3069;DHT22;1545;51.728;8.796;2024-02-26T09:58:39;9.90;79.90
3069;DHT22;1545;51.728;8.796;2024-02-26T10:01:11;9.60;81.10
3069;DHT22;1545;51.728;8.796;2024-02-26T10:03:39;9.80;80.60
3069;DHT22;1545;51.728;8.796;2024-02-26T10:06:09;9.90;79.20
3069;DHT22;1545;51.728;8.796;2024-02-26T10:08:35;9.70;80.00
3069;DHT22;1545;51.728;8.796;2024-02-26T10:11:03;9.80;81.10
3069;DHT22;1545;51.728;8.796;2024-02-26T10:13:28;10.00;81.40
3069;DHT22;1545;51.728;8.796;2024-02-26T10:15:53;9.80;80.80
3069;DHT22;1545;51.728;8.796;2024-02-26T10:18:19;9.90;80.40
3069;DHT22;1545;51.728;8.796;2024-02-26T10:21:00;9.90;80.50
3069;DHT22;1545;51.728;8.796;2024-02-26T10:23:27;10.00;81.90
3069;DHT22;1545;51.728;8.796;2024-02-26T10:25:54;9.90;80.60
3069;DHT22;1545;51.728;8.796;2024-02-26T10:28:20;9.80;81.50
3069;DHT22;1545;51.728;8.796;2024-02-26T10:30:45;9.70;82.60
3069;DHT22;1545;51.728;8.796;2024-02-26T10:33:12;9.40;81.10
3069;DHT22;1545;51.728;8.796;2024-02-26T10:35:38;9.50;81.70
3069;DHT22;1545;51.728;8.796;2024-02-26T10:38:06;9.40;82.80
3069;DHT22;1545;51.728;8.796;2024-02-26T10:40:32;9.40;81.80
3069;DHT22;1545;51.728;8.796;2024-02-26T10:42:58;9.50;82.30
3069;DHT22;1545;51.728;8.796;2024-02-26T10:45:23;9.50;81.90
3069;DHT22;1545;51.728;8.796;2024-02-26T10:47:49;9.50;82.00
3069;DHT22;1545;51.728;8.796;2024-02-26T10:50:15;9.60;81.90
3069;DHT22;1545;51.728;8.796;2024-02-26T10:52:42;9.70;81.40
3069;DHT22;1545;51.728;8.796;2024-02-26T10:55:08;9.60;82.10
3069;DHT22;1545;51.728;8.796;2024-02-26T10:57:40;9.70;81.30
3069;DHT22;1545;51.728;8.796;2024-02-26T11:00:06;9.60;82.00
3069;DHT22;1545;51.728;8.796;2024-02-26T11:02:33;9.60;82.10
3069;DHT22;1545;51.728;8.796;2024-02-26T11:05:03;9.40;83.70
3069;DHT22;1545;51.728;8.796;2024-02-26T11:07:33;9.40;83.60
3069;DHT22;1545;51.728;8.796;2024-02-26T11:10:00;9.00;84.90
3069;DHT22;1545;51.728;8.796;2024-02-26T11:12:27;9.10;85.10
3069;DHT22;1545;51.728;8.796;2024-02-26T11:14:54;8.80;84.60
3069;DHT22;1545;51.728;8.796;2024-02-26T11:17:22;8.80;85.00
3069;DHT22;1545;51.728;8.796;2024-02-26T11:19:49;8.80;85.80
3069;DHT22;1545;51.728;8.796;2024-02-26T11:22:15;8.80;85.40
3069;DHT22;1545;51.728;8.796;2024-02-26T11:24:41;8.80;85.20
3069;DHT22;1545;51.728;8.796;2024-02-26T11:27:10;8.90;85.50
3069;DHT22;1545;51.728;8.796;2024-02-26T11:30:03;9.00;85.10
3069;DHT22;1545;51.728;8.796;2024-02-26T11:32:30;9.10;84.50
3069;DHT22;1545;51.728;8.796;2024-02-26T11:35:00;9.10;85.00
3069;DHT22;1545;51.728;8.796;2024-02-26T11:37:26;9.10;84.20
3069;DHT22;1545;51.728;8.796;2024-02-26T11:39:52;9.10;84.50
3069;DHT22;1545;51.728;8.796;2024-02-26T11:42:23;9.20;84.80
3069;DHT22;1545;51.728;8.796;2024-02-26T11:44:49;9.20;85.20
3069;DHT22;1545;51.728;8.796;2024-02-26T11:47:22;9.20;83.70
3069;DHT22;1545;51.728;8.796;2024-02-26T11:49:48;9.10;84.40
3069;DHT22;1545;51.728;8.796;2024-02-26T11:52:15;9.10;84.00
3069;DHT22;1545;51.728;8.796;2024-02-26T11:54:51;9.20;85.10
3069;DHT22;1545;51.728;8.796;2024-02-26T11:59:47;9.20;83.60
3069;DHT22;1545;51.728;8.796;2024-02-26T12:02:46;9.20;84.70
3069;DHT22;1545;51.728;8.796;2024-02-26T12:05:14;9.40;84.00
3069;DHT22;1545;51.728;8.796;2024-02-26T12:07:46;9.40;84.30
3069;DHT22;1545;51.728;8.796;2024-02-26T12:10:25;9.30;84.70
3069;DHT22;1545;51.728;8.796;2024-02-26T12:12:58;9.40;83.70
3069;DHT22;1545;51.728;8.796;2024-02-26T12:15:24;9.30;84.90
3069;DHT22;1545;51.728;8.796;2024-02-26T12:17:56;9.40;84.20
3069;DHT22;1545;51.728;8.796;2024-02-26T12:20:21;9.40;84.30
3069;DHT22;1545;51.728;8.796;2024-02-26T12:22:49;9.30;85.00
3069;DHT22;1545;51.728;8.796;2024-02-26T12:25:15;9.40;85.70
3069;DHT22;1545;51.728;8.796;2024-02-26T12:27:41;9.40;85.10
3069;DHT22;1545;51.728;8.796;2024-02-26T12:30:07;9.40;85.90
3069;DHT22;1545;51.728;8.796;2024-02-26T12:32:33;9.40;85.30
3069;DHT22;1545;51.728;8.796;2024-02-26T12:34:59;9.30;85.80
3069;DHT22;1545;51.728;8.796;2024-02-26T12:37:26;9.20;86.50
3069;DHT22;1545;51.728;8.796;2024-02-26T12:39:52;9.20;86.80
3069;DHT22;1545;51.728;8.796;2024-02-26T12:42:18;9.10;87.20
3069;DHT22;1545;51.728;8.796;2024-02-26T12:44:45;9.10;87.30
3069;DHT22;1545;51.728;8.796;2024-02-26T12:47:11;9.10;87.20
3069;DHT22;1545;51.728;8.796;2024-02-26T12:49:42;9.10;87.10
3069;DHT22;1545;51.728;8.796;2024-02-26T12:52:10;9.20;86.80
3069;DHT22;1545;51.728;8.796;2024-02-26T12:54:36;9.30;88.00
3069;DHT22;1545;51.728;8.796;2024-02-26T12:57:05;9.40;87.80
3069;DHT22;1545;51.728;8.796;2024-02-26T12:59:32;9.40;87.50
3069;DHT22;1545;51.728;8.796;2024-02-26T13:01:59;9.30;86.60
3069;DHT22;1545;51.728;8.796;2024-02-26T13:04:26;9.20;86.40
3069;DHT22;1545;51.728;8.796;2024-02-26T13:06:52;9.30;87.00
3069;DHT22;1545;51.728;8.796;2024-02-26T13:09:18;9.40;87.80
3069;DHT22;1545;51.728;8.796;2024-02-26T13:11:44;9.30;86.20
3069;DHT22;1545;51.728;8.796;2024-02-26T13:14:22;9.30;86.00
3069;DHT22;1545;51.728;8.796;2024-02-26T13:16:55;9.20;86.70
3069;DHT22;1545;51.728;8.796;2024-02-26T13:19:21;9.40;87.20
3069;DHT22;1545;51.728;8.796;2024-02-26T13:21:47;9.30;86.20
3069;DHT22;1545;51.728;8.796;2024-02-26T13:24:13;9.30;86.80
3069;DHT22;1545;51.728;8.796;2024-02-26T13:26:39;9.30;87.00
3069;DHT22;1545;51.728;8.796;2024-02-26T13:29:05;9.10;86.10
3069;DHT22;1545;51.728;8.796;2024-02-26T13:31:31;9.10;86.10
3069;DHT22;1545;51.728;8.796;2024-02-26T13:33:57;8.90;86.90
3069;DHT22;1545;51.728;8.796;2024-02-26T13:36:24;8.80;86.50
3069;DHT22;1545;51.728;8.796;2024-02-26T13:38:54;8.80;86.20
3069;DHT22;1545;51.728;8.796;2024-02-26T13:41:20;8.80;86.70
3069;DHT22;1545;51.728;8.796;2024-02-26T13:43:46;8.70;87.00
3069;DHT22;1545;51.728;8.796;2024-02-26T13:46:12;8.70;86.80
3069;DHT22;1545;51.728;8.796;2024-02-26T13:48:39;8.70;86.80
3069;DHT22;1545;51.728;8.796;2024-02-26T13:51:05;8.80;86.40
3069;DHT22;1545;51.728;8.796;2024-02-26T13:53:30;8.70;86.20
3069;DHT22;1545;51.728;8.796;2024-02-26T13:55:56;8.70;86.80
3069;DHT22;1545;51.728;8.796;2024-02-26T13:58:24;8.70;86.80
3069;DHT22;1545;51.728;8.796;2024-02-26T14:00:50;8.80;87.60
3069;DHT22;1545;51.728;8.796;2024-02-26T14:03:16;8.90;86.80
3069;DHT22;1545;51.728;8.796;2024-02-26T14:05:42;8.90;87.10
3069;DHT22;1545;51.728;8.796;2024-02-26T14:08:08;8.90;87.70
3069;DHT22;1545;51.728;8.796;2024-02-26T14:10:34;8.90;87.30
3069;DHT22;1545;51.728;8.796;2024-02-26T14:12:59;8.80;86.60
3069;DHT22;1545;51.728;8.796;2024-02-26T14:15:25;8.70;86.40
3069;DHT22;1545;51.728;8.796;2024-02-26T14:17:52;8.70;87.30
3069;DHT22;1545;51.728;8.796;2024-02-26T14:20:21;8.70;86.90
3069;DHT22;1545;51.728;8.796;2024-02-26T14:22:48;8.70;86.30
3069;DHT22;1545;51.728;8.796;2024-02-26T14:25:14;8.70;86.20
3069;DHT22;1545;51.728;8.796;2024-02-26T14:27:40;8.70;86.50
3069;DHT22;1545;51.728;8.796;2024-02-26T14:30:06;8.70;86.70
3069;DHT22;1545;51.728;8.796;2024-02-26T14:32:31;8.80;87.20
3069;DHT22;1545;51.728;8.796;2024-02-26T14:35:00;8.80;86.80
3069;DHT22;1545;51.728;8.796;2024-02-26T14:37:26;8.70;86.40
3069;DHT22;1545;51.728;8.796;2024-02-26T14:39:51;8.70;87.30
3069;DHT22;1545;51.728;8.796;2024-02-26T14:42:18;8.60;87.10
3069;DHT22;1545;51.728;8.796;2024-02-26T14:44:43;8.60;86.50
3069;DHT22;1545;51.728;8.796;2024-02-26T14:47:09;8.60;86.50
3069;DHT22;1545;51.728;8.796;2024-02-26T14:49:35;8.50;86.90
3069;DHT22;1545;51.728;8.796;2024-02-26T14:52:00;8.60;87.60
3069;DHT22;1545;51.728;8.796;2024-02-26T14:54:28;8.60;87.70
3069;DHT22;1545;51.728;8.796;2024-02-26T14:56:58;8.60;87.20
3069;DHT22;1545;51.728;8.796;2024-02-26T14:59:23;8.60;87.20
3069;DHT22;1545;51.728;8.796;2024-02-26T15:01:48;8.60;87.30
3069;DHT22;1545;51.728;8.796;2024-02-26T15:04:14;8.50;87.70
3069;DHT22;1545;51.728;8.796;2024-02-26T15:06:39;8.60;87.60
3069;DHT22;1545;51.728;8.796;2024-02-26T15:09:05;8.50;87.50
3069;DHT22;1545;51.728;8.796;2024-02-26T15:11:31;8.60;87.60
3069;DHT22;1545;51.728;8.796;2024-02-26T15:13:57;8.50;88.60
3069;DHT22;1545;51.728;8.796;2024-02-26T15:16:22;8.50;88.40
3069;DHT22;1545;51.728;8.796;2024-02-26T15:18:48;8.50;87.40
3069;DHT22;1545;51.728;8.796;2024-02-26T15:21:13;8.50;86.50
3069;DHT22;1545;51.728;8.796;2024-02-26T15:23:42;8.50;87.40
3069;DHT22;1545;51.728;8.796;2024-02-26T15:26:08;8.50;87.30
3069;DHT22;1545;51.728;8.796;2024-02-26T15:28:34;8.50;87.20
3069;DHT22;1545;51.728;8.796;2024-02-26T15:30:59;8.60;86.90
3069;DHT22;1545;51.728;8.796;2024-02-26T15:33:25;8.60;86.70
3069;DHT22;1545;51.728;8.796;2024-02-26T15:35:50;8.60;86.70
3069;DHT22;1545;51.728;8.796;2024-02-26T15:38:15;8.50;87.90
3069;DHT22;1545;51.728;8.796;2024-02-26T15:40:41;8.50;87.90
3069;DHT22;1545;51.728;8.796;2024-02-26T15:43:07;8.60;87.60
3069;DHT22;1545;51.728;8.796;2024-02-26T15:45:32;8.50;89.00
3069;DHT22;1545;51.728;8.796;2024-02-26T15:47:59;8.50;88.60
3069;DHT22;1545;51.728;8.796;2024-02-26T15:50:25;8.50;87.40
3069;DHT22;1545;51.728;8.796;2024-02-26T15:52:50;8.50;87.50
3069;DHT22;1545;51.728;8.796;2024-02-26T15:55:16;8.60;87.00
3069;DHT22;1545;51.728;8.796;2024-02-26T15:57:42;8.50;87.50
3069;DHT22;1545;51.728;8.796;2024-02-26T16:00:08;8.40;88.80
3069;DHT22;1545;51.728;8.796;2024-02-26T16:02:36;8.40;87.40
3069;DHT22;1545;51.728;8.796;2024-02-26T16:05:02;8.40;87.80
3069;DHT22;1545;51.728;8.796;2024-02-26T16:07:50;8.40;88.30
3069;DHT22;1545;51.728;8.796;2024-02-26T16:10:17;8.30;87.90
3069;DHT22;1545;51.728;8.796;2024-02-26T16:12:47;8.30;87.70